createdAt,value
2019-05-14T00:00:15.377Z,2.9
2019-05-14T00:00:52.643Z,2.9
2019-05-14T00:01:27.303Z,2.9
2019-05-14T00:02:03.290Z,2.9
2019-05-14T00:02:41.531Z,2.9
2019-05-14T00:03:15.329Z,2.8
2019-05-14T00:03:51.981Z,2.8
2019-05-14T00:04:27.268Z,2.8
2019-05-14T00:05:03.373Z,2.7
2019-05-14T00:05:39.336Z,2.7
2019-05-14T00:06:15.313Z,2.8
2019-05-14T00:06:52.310Z,2.7
2019-05-14T00:07:27.353Z,2.7
2019-05-14T00:08:03.322Z,2.8
2019-05-14T00:08:41.614Z,2.6
2019-05-14T00:09:15.260Z,2.6
2019-05-14T00:09:52.259Z,2.7
2019-05-14T00:10:27.321Z,2.6
2019-05-14T00:11:03.334Z,2.6
2019-05-14T00:11:41.834Z,2.7
2019-05-14T00:12:15.368Z,2.6
2019-05-14T00:12:51.699Z,2.6
2019-05-14T00:13:27.402Z,2.5
2019-05-14T00:14:03.378Z,2.6
2019-05-14T00:14:43.286Z,2.6
2019-05-14T00:15:15.311Z,2.5
2019-05-14T00:15:52.566Z,2.5
2019-05-14T00:16:27.372Z,2.5
2019-05-14T00:17:03.359Z,2.5
2019-05-14T00:17:41.899Z,2.5
2019-05-14T00:18:15.280Z,2.5
2019-05-14T00:18:51.601Z,2.5
2019-05-14T00:19:27.339Z,2.5
2019-05-14T00:20:13.038Z,2.5
2019-05-14T00:20:39.280Z,2.4
2019-05-14T00:21:15.370Z,2.5
2019-05-14T00:21:51.762Z,2.5
2019-05-14T00:22:27.305Z,2.5
2019-05-14T00:23:03.279Z,2.5
2019-05-14T00:23:39.382Z,2.5
2019-05-14T00:24:15.337Z,2.5
2019-05-14T00:24:52.350Z,2.5
2019-05-14T00:25:27.271Z,2.4
2019-05-14T00:26:03.370Z,2.5
2019-05-14T00:26:39.330Z,2.4
2019-05-14T00:27:15.298Z,2.5
2019-05-14T00:27:52.258Z,2.5
2019-05-14T00:28:27.353Z,2.5
2019-05-14T00:29:15.375Z,2.5
2019-05-14T00:29:52.168Z,2.5
2019-05-14T00:30:27.300Z,2.5
2019-05-14T00:31:03.411Z,2.6
2019-05-14T00:31:39.355Z,2.6
2019-05-14T00:32:15.327Z,2.6
2019-05-14T00:32:52.408Z,2.6
2019-05-14T00:33:27.393Z,2.7
2019-05-14T00:34:03.367Z,2.6
2019-05-14T00:34:39.316Z,2.7
2019-05-14T00:35:15.303Z,2.7
2019-05-14T00:35:51.871Z,2.7
2019-05-14T00:36:27.348Z,2.8
2019-05-14T00:37:03.356Z,2.6
2019-05-14T00:37:41.661Z,2.8
2019-05-14T00:38:15.374Z,2.7
2019-05-14T00:38:51.737Z,2.7
2019-05-14T00:39:27.326Z,2.8
2019-05-14T00:40:03.294Z,2.7
2019-05-14T00:40:41.427Z,2.7
2019-05-14T00:41:15.353Z,2.7
2019-05-14T00:41:51.687Z,2.7
2019-05-14T00:42:27.278Z,2.8
2019-05-14T00:43:03.367Z,2.7
2019-05-14T00:43:41.789Z,2.7
2019-05-14T00:44:15.361Z,2.6
2019-05-14T00:44:57.912Z,2.6
2019-05-14T00:45:27.363Z,2.6
2019-05-14T00:46:03.338Z,2.6
2019-05-14T00:46:41.325Z,2.6
2019-05-14T00:47:15.280Z,2.6
2019-05-14T00:47:52.865Z,2.7
2019-05-14T00:48:27.336Z,2.6
2019-05-14T00:49:03.333Z,2.7
2019-05-14T00:49:39.391Z,2.6
2019-05-14T00:50:15.378Z,2.7
2019-05-14T00:50:51.998Z,2.6
2019-05-14T00:51:27.304Z,2.6
2019-05-14T00:52:03.271Z,2.7
2019-05-14T00:52:39.357Z,2.7
2019-05-14T00:53:15.329Z,2.6
2019-05-14T00:53:51.979Z,2.7
2019-05-14T00:54:27.271Z,2.7
2019-05-14T00:55:03.369Z,2.6
2019-05-14T00:55:39.337Z,2.5
2019-05-14T00:56:15.305Z,2.6
2019-05-14T00:56:52.512Z,2.6
2019-05-14T00:57:27.352Z,2.6
2019-05-14T00:58:03.335Z,2.6
2019-05-14T00:58:41.740Z,2.5
2019-05-14T00:59:15.381Z,2.6
2019-05-14T00:59:52.501Z,2.5
2019-05-14T01:00:27.335Z,2.6
2019-05-14T01:01:03.332Z,2.5
2019-05-14T01:01:39.417Z,2.5
2019-05-14T01:02:15.353Z,2.5
2019-05-14T01:02:52.125Z,2.4
2019-05-14T01:03:27.296Z,2.5
2019-05-14T01:04:03.371Z,2.4
2019-05-14T01:04:39.353Z,2.5
2019-05-14T01:05:15.319Z,2.4
2019-05-14T01:05:52.614Z,2.4
2019-05-14T01:06:27.371Z,2.4
2019-05-14T01:07:03.344Z,2.4
2019-05-14T01:07:39.317Z,2.4
2019-05-14T01:08:15.316Z,2.4
2019-05-14T01:08:52.182Z,2.4
2019-05-14T01:09:27.335Z,2.3
2019-05-14T01:10:03.368Z,2.3
2019-05-14T01:10:41.599Z,2.4
2019-05-14T01:11:15.366Z,2.3
2019-05-14T01:11:51.691Z,2.4
2019-05-14T01:12:27.360Z,2.3
2019-05-14T01:13:03.295Z,2.3
2019-05-14T01:13:41.972Z,2.3
2019-05-14T01:14:15.323Z,2.3
2019-05-14T01:15:27.265Z,2.3
2019-05-14T01:16:03.362Z,2.2
2019-05-14T01:16:39.331Z,2.3
2019-05-14T01:17:15.330Z,2.2
2019-05-14T01:17:52.021Z,2.2
2019-05-14T01:18:27.370Z,2.2
2019-05-14T01:19:03.350Z,2.2
2019-05-14T01:19:42.056Z,2.1
2019-05-14T01:20:15.418Z,2.1
2019-05-14T01:20:52.331Z,2.2
2019-05-14T01:21:27.328Z,2.1
2019-05-14T01:22:03.298Z,2.1
2019-05-14T01:22:39.398Z,2.1
2019-05-14T01:23:15.357Z,2.1
2019-05-14T01:23:51.787Z,2
2019-05-14T01:24:27.304Z,2.1
2019-05-14T01:25:03.394Z,2.1
2019-05-14T01:25:39.465Z,2
2019-05-14T01:26:15.326Z,2
2019-05-14T01:26:52.657Z,2
2019-05-14T01:27:27.384Z,2.1
2019-05-14T01:28:03.367Z,2
2019-05-14T01:28:41.782Z,2
2019-05-14T01:29:15.285Z,2
2019-05-14T01:29:51.832Z,2
2019-05-14T01:30:27.343Z,2
2019-05-14T01:31:03.365Z,1.9
2019-05-14T01:31:41.577Z,2
2019-05-14T01:32:15.389Z,2
2019-05-14T01:32:51.631Z,2
2019-05-14T01:33:27.326Z,2
2019-05-14T01:34:03.292Z,2
2019-05-14T01:34:42.252Z,2
2019-05-14T01:35:15.337Z,2
2019-05-14T01:35:51.863Z,1.9
2019-05-14T01:36:27.295Z,1.9
2019-05-14T01:37:03.372Z,1.9
2019-05-14T01:37:41.927Z,1.9
2019-05-14T01:38:15.322Z,1.9
2019-05-14T01:38:51.721Z,1.8
2019-05-14T01:39:27.366Z,1.8
2019-05-14T01:40:03.343Z,1.8
2019-05-14T01:40:41.778Z,1.8
2019-05-14T01:41:15.402Z,1.6
2019-05-14T01:41:52.018Z,1.7
2019-05-14T01:42:27.337Z,1.8
2019-05-14T01:43:03.300Z,1.7
2019-05-14T01:43:41.715Z,1.7
2019-05-14T01:44:15.357Z,1.6
2019-05-14T01:44:52.330Z,1.6
2019-05-14T01:45:28.605Z,1.6
2019-05-14T01:46:03.379Z,1.6
2019-05-14T01:46:39.368Z,1.7
2019-05-14T01:47:15.359Z,1.6
2019-05-14T01:47:52.398Z,1.6
2019-05-14T01:48:27.382Z,1.6
2019-05-14T01:49:03.357Z,1.6
2019-05-14T01:49:39.316Z,1.5
2019-05-14T01:50:15.292Z,1.6
2019-05-14T01:50:52.458Z,1.6
2019-05-14T01:51:27.353Z,1.6
2019-05-14T01:52:03.331Z,1.6
2019-05-14T01:52:41.811Z,1.5
2019-05-14T01:53:15.384Z,1.5
2019-05-14T01:53:52.417Z,1.6
2019-05-14T01:54:27.322Z,1.5
2019-05-14T01:55:08.795Z,1.5
2019-05-14T01:55:41.710Z,1.5
2019-05-14T01:56:15.349Z,1.5
2019-05-14T01:56:51.904Z,1.5
2019-05-14T01:57:27.275Z,1.5
2019-05-14T01:58:03.374Z,1.4
2019-05-14T01:58:41.514Z,1.4
2019-05-14T01:59:15.313Z,1.4
2019-05-14T01:59:51.998Z,1.3
2019-05-14T02:00:27.381Z,1.4
2019-05-14T02:01:03.352Z,1.4
2019-05-14T02:01:41.801Z,1.3
2019-05-14T02:02:15.402Z,1.3
2019-05-14T02:02:52.786Z,1.3
2019-05-14T02:03:27.389Z,1.3
2019-05-14T02:04:03.312Z,1.3
2019-05-14T02:04:39.390Z,1.3
2019-05-14T02:05:15.370Z,1.3
2019-05-14T02:05:52.431Z,1.3
2019-05-14T02:06:27.307Z,1.3
2019-05-14T02:07:03.402Z,1.2
2019-05-14T02:07:41.812Z,1.3
2019-05-14T02:08:15.325Z,1.2
2019-05-14T02:08:51.872Z,1.4
2019-05-14T02:09:27.376Z,1.3
2019-05-14T02:10:03.371Z,1.3
2019-05-14T02:10:39.337Z,1.3
2019-05-14T02:11:15.334Z,1.3
2019-05-14T02:11:52.209Z,1.3
2019-05-14T02:12:27.357Z,1.2
2019-05-14T02:13:03.344Z,1.3
2019-05-14T02:13:41.639Z,1.2
2019-05-14T02:14:15.419Z,1.3
2019-05-14T02:14:51.663Z,1.2
2019-05-14T02:15:40.485Z,1.3
2019-05-14T02:16:03.383Z,1.2
2019-05-14T02:16:41.997Z,1.2
2019-05-14T02:17:15.351Z,1.2
2019-05-14T02:17:52.189Z,1.2
2019-05-14T02:18:27.292Z,1.2
2019-05-14T02:19:03.384Z,1.2
2019-05-14T02:19:39.425Z,1.2
2019-05-14T02:20:15.318Z,1.2
2019-05-14T02:20:52.457Z,1.3
2019-05-14T02:21:27.398Z,1.2
2019-05-14T02:22:03.360Z,1.2
2019-05-14T02:22:41.890Z,1.3
2019-05-14T02:23:15.403Z,1.3
2019-05-14T02:23:51.778Z,1.2
2019-05-14T02:24:27.348Z,1.3
2019-05-14T02:25:03.343Z,1.3
2019-05-14T02:25:41.502Z,1.2
2019-05-14T02:26:15.365Z,1.3
2019-05-14T02:26:51.851Z,1.2
2019-05-14T02:27:27.298Z,1.3
2019-05-14T02:28:03.394Z,1.3
2019-05-14T02:28:39.381Z,1.3
2019-05-14T02:29:15.354Z,1.2
2019-05-14T02:29:52.237Z,1.2
2019-05-14T02:30:51.325Z,1.2
2019-05-14T02:31:04.399Z,1.2
2019-05-14T02:31:39.687Z,1.2
2019-05-14T02:32:15.314Z,1.2
2019-05-14T02:32:51.397Z,1.2
2019-05-14T02:33:31.018Z,1.1
2019-05-14T02:34:03.337Z,1.3
2019-05-14T02:34:40.664Z,1.2
2019-05-14T02:35:15.404Z,1.2
2019-05-14T02:35:51.376Z,1.2
2019-05-14T02:36:30.741Z,1.2
2019-05-14T02:37:03.321Z,1.2
2019-05-14T02:37:40.660Z,1.1
2019-05-14T02:38:15.378Z,1.1
2019-05-14T02:38:51.342Z,1.2
2019-05-14T02:39:29.686Z,1.2
2019-05-14T02:40:03.386Z,1.1
2019-05-14T02:40:40.797Z,1.1
2019-05-14T02:41:15.370Z,1.1
2019-05-14T02:41:51.415Z,1
2019-05-14T02:42:29.392Z,1.1
2019-05-14T02:43:03.406Z,1.1
2019-05-14T02:44:03.394Z,1.1
2019-05-14T02:44:41.250Z,1.1
2019-05-14T02:45:15.325Z,1
2019-05-14T02:46:16.130Z,1.1
2019-05-14T02:46:30.004Z,1
2019-05-14T02:47:03.387Z,1
2019-05-14T02:47:40.193Z,1.1
2019-05-14T02:48:40.673Z,1
2019-05-14T02:49:15.328Z,1.1
2019-05-14T02:49:51.414Z,1
2019-05-14T02:50:29.874Z,1.1
2019-05-14T02:51:15.418Z,1.1
2019-05-14T02:51:51.338Z,0.9
2019-05-14T02:52:29.508Z,1.1
2019-05-14T02:53:03.443Z,1
2019-05-14T02:53:51.430Z,1
2019-05-14T02:54:30.143Z,1
2019-05-14T02:55:03.351Z,1
2019-05-14T02:55:39.436Z,1.1
2019-05-14T02:56:15.402Z,1
2019-05-14T02:56:51.418Z,1
2019-05-14T02:57:30.629Z,1.1
2019-05-14T02:58:03.325Z,1.1
2019-05-14T02:58:40.520Z,1
2019-05-14T02:59:15.376Z,1
2019-05-14T02:59:51.379Z,1
2019-05-14T03:00:30.526Z,1
2019-05-14T03:01:15.461Z,1.1
2019-05-14T03:01:51.474Z,1.1
2019-05-14T03:02:30.078Z,1.1
2019-05-14T03:03:03.341Z,1.1
2019-05-14T03:03:40.662Z,1.3
2019-05-14T03:04:15.405Z,1.3
2019-05-14T03:04:51.367Z,1.3
2019-05-14T03:05:29.904Z,1.4
2019-05-14T03:06:03.419Z,1.4
2019-05-14T03:06:40.029Z,1.4
2019-05-14T03:07:15.370Z,1.4
2019-05-14T03:07:51.324Z,1.4
2019-05-14T03:08:30.838Z,1.6
2019-05-14T03:09:03.392Z,1.6
2019-05-14T03:09:40.761Z,1.6
2019-05-14T03:10:15.321Z,1.6
2019-05-14T03:10:51.428Z,1.6
2019-05-14T03:11:30.096Z,1.6
2019-05-14T03:12:03.350Z,1.7
2019-05-14T03:12:40.166Z,1.8
2019-05-14T03:13:51.405Z,1.7
2019-05-14T03:14:30.517Z,1.8
2019-05-14T03:15:29.628Z,1.8
2019-05-14T03:16:30.281Z,2
2019-05-14T03:17:03.373Z,2.1
2019-05-14T03:17:40.938Z,2.2
2019-05-14T03:18:30.060Z,2.2
2019-05-14T03:19:15.357Z,2.2
2019-05-14T03:20:29.329Z,2.2
2019-05-14T03:21:15.429Z,2.3
2019-05-14T03:21:51.370Z,2.2
2019-05-14T03:22:58.370Z,2.3
2019-05-14T03:23:15.582Z,2.3
2019-05-14T03:23:51.418Z,2.3
2019-05-14T03:24:29.242Z,2.3
2019-05-14T03:25:03.364Z,2.3
2019-05-14T03:25:40.368Z,2.3
2019-05-14T03:26:15.441Z,2.3
2019-05-14T03:26:51.397Z,2.4
2019-05-14T03:27:30.882Z,2.4
2019-05-14T03:28:03.348Z,2.4
2019-05-14T03:28:51.324Z,2.4
2019-05-14T03:29:40.615Z,2.3
2019-05-14T03:30:15.419Z,2.4
2019-05-14T03:30:53.480Z,2.5
2019-05-14T03:31:33.878Z,2.4
2019-05-14T03:32:04.259Z,2.4
2019-05-14T03:32:43.259Z,2.3
2019-05-14T03:33:15.418Z,2.4
2019-05-14T03:33:53.548Z,2.4
2019-05-14T03:34:33.729Z,2.4
2019-05-14T03:35:05.010Z,2.4
2019-05-14T03:35:56.503Z,2.4
2019-05-14T03:36:24.947Z,2.4
2019-05-14T03:36:53.775Z,2.3
2019-05-14T03:37:31.365Z,2.4
2019-05-14T03:38:03.376Z,2.4
2019-05-14T03:38:40.130Z,2.3
2019-05-14T03:39:15.315Z,2.3
2019-05-14T03:39:51.415Z,2.3
2019-05-14T03:40:29.808Z,2.3
2019-05-14T03:41:03.340Z,2.3
2019-05-14T03:41:40.270Z,2.4
2019-05-14T03:42:15.403Z,2.3
2019-05-14T03:42:51.365Z,2.4
2019-05-14T03:43:30.048Z,2.3
2019-05-14T03:44:03.456Z,2.3
2019-05-14T03:44:40.396Z,2.3
2019-05-14T03:45:15.363Z,2.3
2019-05-14T03:45:51.350Z,2.4
2019-05-14T03:46:53.562Z,2.4
2019-05-14T03:47:09.264Z,2.4
2019-05-14T03:47:39.818Z,2.4
2019-05-14T03:48:15.326Z,2.4
2019-05-14T03:49:03.389Z,2.4
2019-05-14T03:49:40.342Z,2.5
2019-05-14T03:50:15.386Z,2.5
2019-05-14T03:50:51.401Z,2.5
2019-05-14T03:51:30.173Z,2.5
2019-05-14T03:52:29.695Z,2.5
2019-05-14T03:54:51.404Z,2.5
2019-05-14T03:55:51.401Z,2.6
2019-05-14T03:57:40.439Z,2.6
2019-05-14T03:58:30.695Z,2.7
2019-05-14T04:02:15.398Z,2.7
2019-05-14T04:04:30.361Z,2.8
2019-05-14T04:11:51.382Z,2.9
2019-05-14T04:21:40.434Z,3.5
2019-05-14T04:32:15.644Z,5
2019-05-14T04:52:03.395Z,8
2019-05-14T04:57:30.537Z,6.6
2019-05-14T04:58:03.399Z,6.4
2019-05-14T04:58:41.533Z,6.4
2019-05-14T04:59:30.376Z,6.2
2019-05-14T05:00:15.422Z,6.1
2019-05-14T05:01:03.376Z,5.9
2019-05-14T05:02:03.392Z,5.8
2019-05-14T05:02:51.390Z,5.7
2019-05-14T05:03:31.788Z,5.7
2019-05-14T05:04:03.357Z,5.7
2019-05-14T05:05:03.399Z,5.5
2019-05-14T05:05:39.808Z,5.5
2019-05-14T05:06:15.422Z,5.4
2019-05-14T05:06:51.405Z,5.4
2019-05-14T05:07:51.463Z,5.5
2019-05-14T05:08:30.934Z,5.5
2019-05-14T05:09:03.358Z,5.6
2019-05-14T05:09:40.410Z,5.7
2019-05-14T05:10:30.180Z,5.9
2019-05-14T05:11:03.420Z,6.2
2019-05-14T05:11:40.033Z,6.3
2019-05-14T05:12:29.995Z,6.7
2019-05-14T05:13:03.364Z,7
2019-05-14T05:13:40.212Z,7.1
2019-05-14T05:14:29.992Z,7.5
2019-05-14T05:15:03.419Z,7.8
2019-05-14T05:15:51.409Z,8.1
2019-05-14T05:16:29.938Z,8.3
2019-05-14T05:17:03.369Z,8.4
2019-05-14T05:17:49.534Z,8.5
2019-05-14T05:18:15.410Z,8.8
2019-05-14T05:18:51.388Z,8.8
2019-05-14T05:19:29.440Z,8.9
2019-05-14T05:20:03.345Z,9.1
2019-05-14T05:21:28.654Z,9.4
2019-05-14T05:22:03.383Z,9.5
2019-05-14T05:22:40.201Z,9.6
2019-05-14T05:23:15.334Z,9.6
2019-05-14T05:23:51.394Z,9.7
2019-05-14T05:24:29.050Z,9.7
2019-05-14T05:25:03.345Z,9.8
2019-05-14T05:25:39.321Z,9.8
2019-05-14T05:26:15.421Z,9.8
2019-05-14T05:26:51.380Z,9.8
2019-05-14T05:27:29.075Z,9.9
2019-05-14T05:28:03.428Z,9.7
2019-05-14T05:28:39.725Z,9.8
2019-05-14T05:29:15.367Z,9.8
2019-05-14T05:29:51.341Z,9.8
2019-05-14T05:30:29.726Z,9.8
2019-05-14T05:31:29.334Z,9.8
2019-05-14T05:32:03.436Z,9.8
2019-05-14T05:32:39.468Z,9.8
2019-05-14T05:33:15.364Z,9.8
2019-05-14T05:33:51.336Z,9.8
2019-05-14T05:34:28.647Z,9.7
2019-05-14T05:35:03.399Z,9.8
2019-05-14T05:35:42.553Z,9.7
2019-05-14T05:36:15.318Z,9.7
2019-05-14T05:36:51.410Z,9.6
2019-05-14T05:37:29.685Z,9.5
2019-05-14T05:38:03.359Z,9.4
2019-05-14T05:38:39.965Z,9.4
2019-05-14T05:39:28.626Z,9.3
2019-05-14T05:40:03.412Z,9.4
2019-05-14T05:40:39.563Z,9.3
2019-05-14T05:41:15.355Z,9.3
2019-05-14T05:41:51.329Z,9.3
2019-05-14T05:42:29.787Z,9.2
2019-05-14T05:43:03.398Z,9.1
2019-05-14T05:43:39.867Z,9.1
2019-05-14T05:44:15.321Z,9
2019-05-14T05:44:51.418Z,9
2019-05-14T05:45:29.364Z,8.8
2019-05-14T05:46:03.351Z,8.8
2019-05-14T05:46:39.327Z,8.8
2019-05-14T05:47:15.396Z,8.9
2019-05-14T05:48:01.041Z,8.7
2019-05-14T05:48:28.893Z,8.6
2019-05-14T05:49:03.320Z,8.7
2019-05-14T05:49:39.396Z,8.5
2019-05-14T05:50:15.368Z,8.5
2019-05-14T05:50:51.355Z,8.4
2019-05-14T05:51:29.204Z,8.4
2019-05-14T05:52:03.417Z,8.4
2019-05-14T05:52:39.395Z,8.4
2019-05-14T05:53:15.359Z,8.3
2019-05-14T05:53:51.310Z,8.4
2019-05-14T05:54:29.541Z,8.4
2019-05-14T05:55:03.392Z,8.4
2019-05-14T05:55:39.805Z,8.3
2019-05-14T05:56:29.190Z,8.4
2019-05-14T05:57:03.302Z,8.4
2019-05-14T05:57:39.825Z,8.3
2019-05-14T05:58:15.366Z,8.2
2019-05-14T05:58:51.597Z,8.2
2019-05-14T05:59:29.686Z,8.2
2019-05-14T06:00:03.381Z,8.2
2019-05-14T06:00:40.595Z,8.2
2019-05-14T06:01:15.312Z,8.1
2019-05-14T06:01:54.572Z,8.1
2019-05-14T06:02:29.497Z,8.1
2019-05-14T06:03:03.367Z,8.2
2019-05-14T06:03:51.360Z,8.1
2019-05-14T06:04:39.890Z,8.2
2019-05-14T06:05:15.330Z,8.1
2019-05-14T06:05:51.416Z,8.1
2019-05-14T06:06:51.315Z,8.1
2019-05-14T06:07:29.218Z,8.1
2019-05-14T06:08:03.390Z,8.1
2019-05-14T06:08:39.348Z,8
2019-05-14T06:09:15.325Z,8
2019-05-14T06:09:51.408Z,8
2019-05-14T06:10:29.559Z,8
2019-05-14T06:11:03.347Z,8.1
2019-05-14T06:11:39.326Z,8.2
2019-05-14T06:12:15.395Z,8.1
2019-05-14T06:12:51.374Z,8.1
2019-05-14T06:13:39.660Z,8.1
2019-05-14T06:14:15.331Z,8.2
2019-05-14T06:14:51.299Z,8.2
2019-05-14T06:15:48.626Z,8.3
2019-05-14T06:16:03.393Z,8.3
2019-05-14T06:16:39.347Z,8.4
2019-05-14T06:17:15.302Z,8.3
2019-05-14T06:17:51.410Z,8.4
2019-05-14T06:18:28.956Z,8.4
2019-05-14T06:19:03.341Z,8.4
2019-05-14T06:19:39.294Z,8.6
2019-05-14T06:20:15.396Z,8.6
2019-05-14T06:20:51.368Z,8.5
2019-05-14T06:21:29.589Z,8.6
2019-05-14T06:22:04.623Z,8.7
2019-05-14T06:22:39.378Z,8.8
2019-05-14T06:23:15.394Z,8.7
2019-05-14T06:23:51.324Z,8.7
2019-05-14T06:24:28.898Z,8.7
2019-05-14T06:25:03.463Z,8.8
2019-05-14T06:25:40.404Z,8.9
2019-05-14T06:26:15.353Z,8.8
2019-05-14T06:26:51.299Z,8.9
2019-05-14T06:27:29.091Z,8.9
2019-05-14T06:28:03.353Z,9.1
2019-05-14T06:28:41.379Z,9
2019-05-14T06:29:15.284Z,9
2019-05-14T06:29:54.654Z,9.2
2019-05-14T06:30:39.957Z,9.2
2019-05-14T06:31:15.442Z,9.3
2019-05-14T06:32:03.354Z,9.3
2019-05-14T06:32:51.346Z,9.5
2019-05-14T06:33:51.376Z,9.8
2019-05-14T06:35:03.315Z,9.7
2019-05-14T06:35:40.162Z,9.7
2019-05-14T06:36:51.419Z,9.7
2019-05-14T06:37:27.304Z,9.7
2019-05-14T06:38:15.327Z,9.7
2019-05-14T06:38:51.280Z,9.8
2019-05-14T06:40:03.338Z,9.8
2019-05-14T06:40:39.955Z,10
2019-05-14T06:41:28.726Z,9.9
2019-05-14T06:42:28.838Z,9.8
2019-05-14T06:43:15.330Z,9.8
2019-05-14T06:43:51.310Z,9.8
2019-05-14T06:44:29.674Z,9.8
2019-05-14T06:45:15.399Z,9.8
2019-05-14T06:45:51.358Z,9.8
2019-05-14T06:46:39.534Z,9.9
2019-05-14T06:47:29.246Z,10
2019-05-14T06:48:51.349Z,10.1
2019-05-14T06:49:29.346Z,10.2
2019-05-14T06:50:03.391Z,10.2
2019-05-14T06:52:03.325Z,10.3
2019-05-14T06:53:29.472Z,10.3
2019-05-14T06:54:15.298Z,10.3
2019-05-14T06:57:03.377Z,10.3
2019-05-14T07:00:03.325Z,10.2
2019-05-14T07:01:03.378Z,10.3
2019-05-14T07:01:39.312Z,10.2
2019-05-14T07:02:15.304Z,10.3
2019-05-14T07:02:51.374Z,10.3
2019-05-14T07:03:28.492Z,10.4
2019-05-14T07:04:18.019Z,10.3
2019-05-14T07:05:15.362Z,10.2
2019-05-14T07:12:03.325Z,10.4
2019-05-14T07:13:15.400Z,10.5
2019-05-14T07:14:03.352Z,10.5
2019-05-14T07:15:51.273Z,10.7
2019-05-14T07:16:39.450Z,10.8
2019-05-14T07:17:15.381Z,10.9
2019-05-14T07:17:51.332Z,10.8
2019-05-14T07:18:52.683Z,10.9
2019-05-14T07:19:18.913Z,10.9
2019-05-14T07:19:51.276Z,10.8
2019-05-14T07:20:28.593Z,10.9
2019-05-14T07:21:03.347Z,10.9
2019-05-14T07:21:39.287Z,11
2019-05-14T07:22:51.364Z,11.1
2019-05-14T07:23:29.299Z,11.2
2019-05-14T07:24:03.297Z,11.4
2019-05-14T07:24:40.927Z,11.4
2019-05-14T07:25:28.984Z,11.6
2019-05-14T07:26:03.364Z,11.6
2019-05-14T07:27:28.611Z,11.8
2019-05-14T07:28:03.301Z,12
2019-05-14T07:28:51.277Z,11.9
2019-05-14T07:30:15.384Z,12.2
2019-05-14T07:30:51.347Z,12.1
2019-05-14T07:31:29.448Z,12
2019-05-14T07:34:15.378Z,12.6
2019-05-14T07:34:51.360Z,12.7
2019-05-14T07:35:29.173Z,12.8
2019-05-14T07:36:39.362Z,12.8
2019-05-14T07:38:15.381Z,12.8
2019-05-14T07:38:51.394Z,12.8
2019-05-14T07:40:15.296Z,12.6
2019-05-14T07:40:51.277Z,12.8
2019-05-14T07:41:39.512Z,12.8
2019-05-14T07:42:29.288Z,13
2019-05-14T07:43:03.357Z,13
2019-05-14T07:43:39.830Z,13.1
2019-05-14T07:44:29.916Z,13.1
2019-05-14T07:45:03.369Z,13
2019-05-14T07:45:39.258Z,12.9
2019-05-14T07:46:51.326Z,12.9
2019-05-14T07:47:29.406Z,12.8
2019-05-14T07:49:51.289Z,12.5
2019-05-14T07:50:52.459Z,12.5
2019-05-14T07:51:28.606Z,12.3
2019-05-14T07:52:03.257Z,12.3
2019-05-14T07:53:03.583Z,12.5
2019-05-14T07:53:51.328Z,12.5
2019-05-14T07:56:15.271Z,12.9
2019-05-14T07:56:53.312Z,13
2019-05-14T07:57:28.824Z,13.1
2019-05-14T07:58:39.292Z,13.2
2019-05-14T07:59:15.243Z,13.2
2019-05-14T07:59:51.334Z,13.3
2019-05-14T08:00:40.585Z,13.3
2019-05-14T08:01:28.491Z,13.3
2019-05-14T08:02:15.340Z,13.4
2019-05-14T08:05:03.273Z,14.1
2019-05-14T08:06:15.326Z,14
2019-05-14T08:06:51.290Z,13.9
2019-05-14T08:07:28.570Z,14
2019-05-14T08:09:03.324Z,14
2019-05-14T08:09:39.439Z,14
2019-05-14T08:10:29.299Z,14
2019-05-14T08:11:03.340Z,14
2019-05-14T08:11:39.296Z,13.9
2019-05-14T08:12:51.233Z,13.8
2019-05-14T08:13:28.687Z,13.7
2019-05-14T08:14:39.044Z,13.5
2019-05-14T08:15:51.319Z,13.7
2019-05-14T08:16:51.220Z,13.6
2019-05-14T08:17:39.348Z,13.3
2019-05-14T08:18:15.309Z,13.2
2019-05-14T08:19:29.670Z,12.9
2019-05-14T08:20:39.323Z,12.7
2019-05-14T08:21:15.280Z,12.7
2019-05-14T08:22:15.301Z,12.7
2019-05-14T08:23:51.323Z,12.5
2019-05-14T08:25:28.628Z,12.5
2019-05-14T08:27:39.365Z,12.4
2019-05-14T08:28:15.244Z,12.4
2019-05-14T08:28:51.396Z,12.4
2019-05-14T08:29:29.045Z,12.3
2019-05-14T08:30:03.275Z,12.4
2019-05-14T08:31:03.298Z,12.2
2019-05-14T08:32:28.787Z,12.2
2019-05-14T08:34:39.422Z,12.3
2019-05-14T08:35:29.339Z,12.3
2019-05-14T08:38:08.452Z,12.5
2019-05-14T08:38:51.257Z,12.5
2019-05-14T08:40:51.336Z,12.4
2019-05-14T08:41:39.311Z,12.2
2019-05-14T08:42:39.223Z,12.2
2019-05-14T08:44:03.320Z,12.1
2019-05-14T08:45:10.229Z,12.1
2019-05-14T08:45:39.379Z,12.1
2019-05-14T08:47:03.306Z,12.2
2019-05-14T08:47:39.571Z,12.2
2019-05-14T08:49:03.228Z,12.3
2019-05-14T08:50:39.261Z,12.3
2019-05-14T08:51:39.337Z,12.4
2019-05-14T08:53:03.232Z,12.6
2019-05-14T08:55:39.263Z,12.9
2019-05-14T08:56:15.239Z,13
2019-05-14T08:56:51.296Z,13
2019-05-14T08:58:39.231Z,13.1
2019-05-14T08:59:15.295Z,13.1
2019-05-14T08:59:51.269Z,13
2019-05-14T09:01:03.189Z,13.1
2019-05-14T09:01:39.309Z,13
2019-05-14T09:02:29.018Z,12.9
2019-05-14T09:03:15.323Z,13
2019-05-14T09:04:15.210Z,13.1
2019-05-14T09:06:03.225Z,13.4
2019-05-14T09:06:39.199Z,13.3
2019-05-14T09:08:39.744Z,13.3
2019-05-14T09:10:40.670Z,13.4
2019-05-14T09:11:36.754Z,13.4
2019-05-14T09:12:15.292Z,13.4
2019-05-14T09:13:15.225Z,13.4
2019-05-14T09:13:51.306Z,13.6
2019-05-14T09:14:28.501Z,13.4
2019-05-14T09:15:03.262Z,13.6
2019-05-14T09:15:51.236Z,13.5
2019-05-14T09:16:50.602Z,13.4
2019-05-14T09:17:15.313Z,13.5
2019-05-14T09:18:04.140Z,13.6
2019-05-14T09:19:03.256Z,13.8
2019-05-14T09:20:06.842Z,14
2019-05-14T09:20:29.321Z,14.2
2019-05-14T09:21:15.210Z,14.3
2019-05-14T09:21:51.289Z,14.5
2019-05-14T09:22:29.328Z,14.5
2019-05-14T09:24:03.393Z,14.4
2019-05-14T09:24:51.283Z,14.3
2019-05-14T09:25:52.341Z,14.2
2019-05-14T09:26:39.510Z,14
2019-05-14T09:27:15.247Z,14
2019-05-14T09:29:39.898Z,13.9
2019-05-14T09:30:15.218Z,14
2019-05-14T09:30:51.205Z,13.9
2019-05-14T09:31:39.757Z,13.8
2019-05-14T09:32:29.499Z,13.8
2019-05-14T09:33:29.966Z,13.8
2019-05-14T09:34:39.728Z,13.8
2019-05-14T09:35:15.288Z,13.7
2019-05-14T09:36:17.803Z,13.7
2019-05-14T09:36:40.021Z,13.4
2019-05-14T09:38:15.217Z,13.5
2019-05-14T09:41:51.402Z,14.4
2019-05-14T09:42:51.185Z,14.5
2019-05-14T09:43:39.683Z,14.3
2019-05-14T09:44:51.259Z,14
2019-05-14T09:45:51.272Z,13.7
2019-05-14T09:46:29.307Z,13.7
2019-05-14T09:50:39.287Z,13.2
2019-05-14T09:51:29.145Z,13.1
2019-05-14T09:53:39.236Z,13
2019-05-14T09:55:39.274Z,13.3
2019-05-14T09:56:29.411Z,13.6
2019-05-14T09:58:28.603Z,14.2
2019-05-14T09:59:51.200Z,14.6
2019-05-14T10:00:27.170Z,14.5
2019-05-14T10:01:03.239Z,14.6
2019-05-14T10:01:39.225Z,14.5
2019-05-14T10:02:15.191Z,14.4
2019-05-14T10:03:51.185Z,14.3
2019-05-14T10:04:27.177Z,14.4
2019-05-14T10:05:27.198Z,14.2
2019-05-14T10:06:39.681Z,14.1
2019-05-14T10:07:16.250Z,14.3
2019-05-14T10:07:51.179Z,14.2
2019-05-14T10:10:03.308Z,14.3
2019-05-14T10:10:40.289Z,14.3
2019-05-14T10:11:15.198Z,14.2
2019-05-14T10:12:03.201Z,14.2
2019-05-14T10:13:15.275Z,14
2019-05-14T10:15:39.453Z,14.1
2019-05-14T10:18:15.207Z,14.1
2019-05-14T10:20:03.233Z,14.1
2019-05-14T10:21:15.238Z,14
2019-05-14T10:22:03.274Z,13.8
2019-05-14T10:23:28.693Z,13.6
2019-05-14T10:26:15.178Z,13.4
2019-05-14T10:29:15.269Z,13.4
2019-05-14T10:30:03.364Z,13.6
2019-05-14T10:32:03.180Z,13.6
2019-05-14T10:33:39.182Z,13.6
2019-05-14T10:38:29.794Z,14.6
2019-05-14T10:39:03.145Z,14.7
2019-05-14T10:39:51.143Z,14.7
2019-05-14T10:41:15.329Z,14.9
2019-05-14T10:41:51.199Z,15
2019-05-14T10:42:40.825Z,15.1
2019-05-14T10:43:29.239Z,15.3
2019-05-14T10:45:29.241Z,15.8
2019-05-14T10:46:29.563Z,15.9
2019-05-14T10:47:51.127Z,15.8
2019-05-14T10:49:51.220Z,15.6
2019-05-14T10:50:29.185Z,15.6
2019-05-14T10:53:29.415Z,15
2019-05-14T10:54:29.654Z,14.6
2019-05-14T10:55:15.154Z,14.5
2019-05-14T10:57:03.199Z,14.2
2019-05-14T10:57:54.532Z,14.2
2019-05-14T10:59:03.147Z,14.3
2019-05-14T11:00:03.141Z,14.4
2019-05-14T11:00:42.302Z,14.5
2019-05-14T11:02:15.123Z,15
2019-05-14T11:03:30.403Z,15.2
2019-05-14T11:04:15.171Z,15.3
2019-05-14T11:04:51.140Z,15.4
2019-05-14T11:05:41.916Z,15.3
2019-05-14T11:06:29.572Z,15.1
2019-05-14T11:07:29.451Z,15
2019-05-14T11:08:15.166Z,14.8
2019-05-14T11:09:15.208Z,14.7
2019-05-14T11:10:15.222Z,14.5
2019-05-14T11:10:51.206Z,14.4
2019-05-14T11:11:51.232Z,14.1
2019-05-14T11:12:40.059Z,14.1
2019-05-14T11:13:29.739Z,14
2019-05-14T11:14:15.216Z,13.8
2019-05-14T11:16:28.746Z,13.9
2019-05-14T11:18:03.191Z,13.7
2019-05-14T11:18:40.485Z,13.7
2019-05-14T11:19:51.207Z,13.6
2019-05-14T11:20:31.564Z,13.7
2019-05-14T11:21:26.277Z,13.7
2019-05-14T11:22:15.200Z,13.5
2019-05-14T11:22:51.194Z,13.5
2019-05-14T11:23:30.063Z,13.5
2019-05-14T11:24:29.776Z,13.7
2019-05-14T11:25:29.066Z,13.7
2019-05-14T11:26:29.914Z,13.6
2019-05-14T11:27:29.509Z,13.7
2019-05-14T11:28:03.117Z,13.6
2019-05-14T11:28:39.954Z,13.7
2019-05-14T11:29:29.996Z,13.8
2019-05-14T11:31:32.079Z,14.4
2019-05-14T11:32:15.135Z,14.6
2019-05-14T11:33:03.128Z,14.7
2019-05-14T11:33:39.369Z,14.9
2019-05-14T11:35:39.858Z,15
2019-05-14T11:36:29.473Z,15
2019-05-14T11:38:37.652Z,14.8
2019-05-14T11:41:03.128Z,14.4
2019-05-14T11:42:03.160Z,14.3
2019-05-14T11:42:51.152Z,14.3
2019-05-14T11:44:03.108Z,14.3
2019-05-14T11:46:15.254Z,14.8
2019-05-14T11:47:15.080Z,15